sensor_id;sensor_type;location;lat;lon;timestamp;temperature;humidity
28761;DHT22;15917;50.014;8.352;2023-12-20T00:00:54;5.60;99.90
28761;DHT22;15917;50.014;8.352;2023-12-20T00:03:19;5.50;99.90
28761;DHT22;15917;50.014;8.352;2023-12-20T00:05:45;5.50;99.90
28761;DHT22;15917;50.014;8.352;2023-12-20T00:08:11;5.50;99.90
28761;DHT22;15917;50.014;8.352;2023-12-20T00:10:37;5.50;99.90
28761;DHT22;15917;50.014;8.352;2023-12-20T00:13:02;5.50;99.90
28761;DHT22;15917;50.014;8.352;2023-12-20T00:15:28;5.50;99.90
28761;DHT22;15917;50.014;8.352;2023-12-20T00:17:53;5.50;99.90
28761;DHT22;15917;50.014;8.352;2023-12-20T00:20:19;5.50;99.90
28761;DHT22;15917;50.014;8.352;2023-12-20T00:22:45;5.50;99.90
28761;DHT22;15917;50.014;8.352;2023-12-20T00:25:10;5.50;99.90
28761;DHT22;15917;50.014;8.352;2023-12-20T00:27:36;5.50;99.90
28761;DHT22;15917;50.014;8.352;2023-12-20T00:30:01;5.50;99.90
28761;DHT22;15917;50.014;8.352;2023-12-20T00:32:27;5.60;99.90
28761;DHT22;15917;50.014;8.352;2023-12-20T00:34:52;5.50;99.90
28761;DHT22;15917;50.014;8.352;2023-12-20T00:37:18;5.50;99.90
28761;DHT22;15917;50.014;8.352;2023-12-20T00:39:44;5.50;99.90
28761;DHT22;15917;50.014;8.352;2023-12-20T00:42:09;5.50;99.90
28761;DHT22;15917;50.014;8.352;2023-12-20T00:44:35;5.50;99.90
28761;DHT22;15917;50.014;8.352;2023-12-20T00:47:00;5.50;99.90
28761;DHT22;15917;50.014;8.352;2023-12-20T00:49:26;5.50;99.90
28761;DHT22;15917;50.014;8.352;2023-12-20T00:51:52;5.50;99.90
28761;DHT22;15917;50.014;8.352;2023-12-20T00:54:18;5.40;99.90
28761;DHT22;15917;50.014;8.352;2023-12-20T00:56:44;5.50;99.90
28761;DHT22;15917;50.014;8.352;2023-12-20T00:59:09;5.50;99.90
28761;DHT22;15917;50.014;8.352;2023-12-20T01:01:35;5.50;99.90
28761;DHT22;15917;50.014;8.352;2023-12-20T01:04:00;5.50;99.90
28761;DHT22;15917;50.014;8.352;2023-12-20T01:06:26;5.50;99.90
28761;DHT22;15917;50.014;8.352;2023-12-20T01:08:51;5.50;99.90
28761;DHT22;15917;50.014;8.352;2023-12-20T01:11:17;5.40;99.90
28761;DHT22;15917;50.014;8.352;2023-12-20T01:13:43;5.40;99.90
28761;DHT22;15917;50.014;8.352;2023-12-20T01:16:12;5.50;99.90
28761;DHT22;15917;50.014;8.352;2023-12-20T01:18:38;5.50;99.90
28761;DHT22;15917;50.014;8.352;2023-12-20T01:21:05;5.50;99.90
28761;DHT22;15917;50.014;8.352;2023-12-20T01:23:31;5.40;99.90
28761;DHT22;15917;50.014;8.352;2023-12-20T01:25:57;5.40;99.90
28761;DHT22;15917;50.014;8.352;2023-12-20T01:28:25;5.50;99.90
28761;DHT22;15917;50.014;8.352;2023-12-20T01:30:50;5.50;99.90
28761;DHT22;15917;50.014;8.352;2023-12-20T01:33:16;5.50;99.90
28761;DHT22;15917;50.014;8.352;2023-12-20T01:35:42;5.50;99.90
28761;DHT22;15917;50.014;8.352;2023-12-20T01:38:07;5.50;99.90
28761;DHT22;15917;50.014;8.352;2023-12-20T01:40:33;5.50;99.90
28761;DHT22;15917;50.014;8.352;2023-12-20T01:43:08;5.50;99.90
28761;DHT22;15917;50.014;8.352;2023-12-20T01:45:34;5.50;99.90
28761;DHT22;15917;50.014;8.352;2023-12-20T01:48:00;5.50;99.90
28761;DHT22;15917;50.014;8.352;2023-12-20T01:50:28;5.50;99.90
28761;DHT22;15917;50.014;8.352;2023-12-20T01:52:55;5.50;99.90
28761;DHT22;15917;50.014;8.352;2023-12-20T01:55:24;5.50;99.90
28761;DHT22;15917;50.014;8.352;2023-12-20T01:57:50;5.50;99.90
28761;DHT22;15917;50.014;8.352;2023-12-20T02:00:17;5.50;99.90
28761;DHT22;15917;50.014;8.352;2023-12-20T02:02:44;5.50;99.90
28761;DHT22;15917;50.014;8.352;2023-12-20T02:05:11;5.50;99.90
28761;DHT22;15917;50.014;8.352;2023-12-20T02:07:36;5.60;99.90
28761;DHT22;15917;50.014;8.352;2023-12-20T02:10:02;5.60;99.90
28761;DHT22;15917;50.014;8.352;2023-12-20T02:12:29;5.60;99.90
28761;DHT22;15917;50.014;8.352;2023-12-20T02:14:55;5.50;99.90
28761;DHT22;15917;50.014;8.352;2023-12-20T02:17:22;5.60;99.90
28761;DHT22;15917;50.014;8.352;2023-12-20T02:19:49;5.60;99.90
28761;DHT22;15917;50.014;8.352;2023-12-20T02:22:14;5.60;99.90
28761;DHT22;15917;50.014;8.352;2023-12-20T02:24:40;5.60;99.90
28761;DHT22;15917;50.014;8.352;2023-12-20T02:27:07;5.60;99.90
28761;DHT22;15917;50.014;8.352;2023-12-20T02:29:36;5.60;99.90
28761;DHT22;15917;50.014;8.352;2023-12-20T02:32:02;5.50;99.90
28761;DHT22;15917;50.014;8.352;2023-12-20T02:34:28;5.60;99.90
28761;DHT22;15917;50.014;8.352;2023-12-20T02:36:54;5.60;99.90
28761;DHT22;15917;50.014;8.352;2023-12-20T02:39:20;5.60;99.90
28761;DHT22;15917;50.014;8.352;2023-12-20T02:41:46;5.60;99.90
28761;DHT22;15917;50.014;8.352;2023-12-20T02:44:12;5.60;99.90
28761;DHT22;15917;50.014;8.352;2023-12-20T02:46:38;5.60;99.90
28761;DHT22;15917;50.014;8.352;2023-12-20T02:49:04;5.60;99.90
28761;DHT22;15917;50.014;8.352;2023-12-20T02:51:29;5.60;99.90
28761;DHT22;15917;50.014;8.352;2023-12-20T02:53:55;5.60;99.90
28761;DHT22;15917;50.014;8.352;2023-12-20T02:56:20;5.60;99.90
28761;DHT22;15917;50.014;8.352;2023-12-20T02:58:46;5.60;99.90
28761;DHT22;15917;50.014;8.352;2023-12-20T03:01:11;5.60;99.90
28761;DHT22;15917;50.014;8.352;2023-12-20T03:03:37;5.60;99.90
28761;DHT22;15917;50.014;8.352;2023-12-20T03:06:02;5.60;99.90
28761;DHT22;15917;50.014;8.352;2023-12-20T03:08:28;5.60;99.90
28761;DHT22;15917;50.014;8.352;2023-12-20T03:10:54;5.60;99.90
28761;DHT22;15917;50.014;8.352;2023-12-20T03:13:19;5.70;99.90
28761;DHT22;15917;50.014;8.352;2023-12-20T03:15:48;5.70;99.90
28761;DHT22;15917;50.014;8.352;2023-12-20T03:18:13;5.70;99.90
28761;DHT22;15917;50.014;8.352;2023-12-20T03:20:39;5.70;99.90
28761;DHT22;15917;50.014;8.352;2023-12-20T03:23:06;5.80;99.90
28761;DHT22;15917;50.014;8.352;2023-12-20T03:25:32;5.80;99.90
28761;DHT22;15917;50.014;8.352;2023-12-20T03:27:58;5.80;99.90
28761;DHT22;15917;50.014;8.352;2023-12-20T03:30:23;5.80;99.90
28761;DHT22;15917;50.014;8.352;2023-12-20T03:32:49;5.80;99.90
28761;DHT22;15917;50.014;8.352;2023-12-20T03:35:14;5.80;99.90
28761;DHT22;15917;50.014;8.352;2023-12-20T03:37:40;5.80;99.90
28761;DHT22;15917;50.014;8.352;2023-12-20T03:40:06;5.80;99.90
28761;DHT22;15917;50.014;8.352;2023-12-20T03:42:31;5.80;99.90
28761;DHT22;15917;50.014;8.352;2023-12-20T03:44:57;5.80;99.90
28761;DHT22;15917;50.014;8.352;2023-12-20T03:47:23;5.80;99.90
28761;DHT22;15917;50.014;8.352;2023-12-20T03:49:48;5.80;99.90
28761;DHT22;15917;50.014;8.352;2023-12-20T03:52:14;5.90;99.90
28761;DHT22;15917;50.014;8.352;2023-12-20T03:54:40;5.90;99.90
28761;DHT22;15917;50.014;8.352;2023-12-20T03:57:07;5.90;99.90
28761;DHT22;15917;50.014;8.352;2023-12-20T03:59:37;5.90;99.90
28761;DHT22;15917;50.014;8.352;2023-12-20T04:02:03;5.90;99.90
28761;DHT22;15917;50.014;8.352;2023-12-20T04:04:29;5.90;99.90
28761;DHT22;15917;50.014;8.352;2023-12-20T04:06:55;5.90;99.90
28761;DHT22;15917;50.014;8.352;2023-12-20T04:09:20;5.90;99.90
28761;DHT22;15917;50.014;8.352;2023-12-20T04:11:46;5.90;99.90
28761;DHT22;15917;50.014;8.352;2023-12-20T04:14:11;5.90;99.90
28761;DHT22;15917;50.014;8.352;2023-12-20T04:16:37;5.90;99.90
28761;DHT22;15917;50.014;8.352;2023-12-20T04:19:04;6.00;99.90
28761;DHT22;15917;50.014;8.352;2023-12-20T04:21:30;6.00;99.90
28761;DHT22;15917;50.014;8.352;2023-12-20T04:23:56;6.00;99.90
28761;DHT22;15917;50.014;8.352;2023-12-20T04:26:21;6.00;99.90
28761;DHT22;15917;50.014;8.352;2023-12-20T04:28:47;6.10;99.90
28761;DHT22;15917;50.014;8.352;2023-12-20T04:31:13;6.10;99.90
28761;DHT22;15917;50.014;8.352;2023-12-20T04:33:39;6.10;99.90
28761;DHT22;15917;50.014;8.352;2023-12-20T04:36:05;6.10;99.90
28761;DHT22;15917;50.014;8.352;2023-12-20T04:38:31;6.10;99.90
28761;DHT22;15917;50.014;8.352;2023-12-20T04:40:56;6.10;99.90
28761;DHT22;15917;50.014;8.352;2023-12-20T04:43:22;6.10;99.90
28761;DHT22;15917;50.014;8.352;2023-12-20T04:45:48;6.00;99.90
28761;DHT22;15917;50.014;8.352;2023-12-20T04:48:13;6.00;99.90
28761;DHT22;15917;50.014;8.352;2023-12-20T04:50:39;6.00;99.90
28761;DHT22;15917;50.014;8.352;2023-12-20T04:53:04;6.00;99.90
28761;DHT22;15917;50.014;8.352;2023-12-20T04:55:30;6.00;99.90
28761;DHT22;15917;50.014;8.352;2023-12-20T04:57:56;5.90;99.90
28761;DHT22;15917;50.014;8.352;2023-12-20T05:00:22;5.90;99.90
28761;DHT22;15917;50.014;8.352;2023-12-20T05:02:47;6.00;99.90
28761;DHT22;15917;50.014;8.352;2023-12-20T05:05:13;6.00;99.90
28761;DHT22;15917;50.014;8.352;2023-12-20T05:07:40;6.00;99.90
28761;DHT22;15917;50.014;8.352;2023-12-20T05:10:06;6.00;99.90
28761;DHT22;15917;50.014;8.352;2023-12-20T05:12:33;6.00;99.90
28761;DHT22;15917;50.014;8.352;2023-12-20T05:15:00;6.00;99.90
28761;DHT22;15917;50.014;8.352;2023-12-20T05:17:25;6.00;99.90
28761;DHT22;15917;50.014;8.352;2023-12-20T05:19:51;6.00;99.90
28761;DHT22;15917;50.014;8.352;2023-12-20T05:22:17;6.00;99.90
28761;DHT22;15917;50.014;8.352;2023-12-20T05:24:44;6.00;99.90
28761;DHT22;15917;50.014;8.352;2023-12-20T05:27:09;6.00;99.90
28761;DHT22;15917;50.014;8.352;2023-12-20T05:29:35;6.00;99.90
28761;DHT22;15917;50.014;8.352;2023-12-20T05:32:00;6.00;99.90
28761;DHT22;15917;50.014;8.352;2023-12-20T05:34:26;6.00;99.90
28761;DHT22;15917;50.014;8.352;2023-12-20T05:36:52;6.00;99.90
28761;DHT22;15917;50.014;8.352;2023-12-20T05:39:17;6.00;99.90
28761;DHT22;15917;50.014;8.352;2023-12-20T05:41:43;6.00;99.90
28761;DHT22;15917;50.014;8.352;2023-12-20T05:44:08;6.00;99.90
28761;DHT22;15917;50.014;8.352;2023-12-20T05:46:34;6.00;99.90
28761;DHT22;15917;50.014;8.352;2023-12-20T05:49:00;6.10;99.90
28761;DHT22;15917;50.014;8.352;2023-12-20T05:51:25;6.10;99.90
28761;DHT22;15917;50.014;8.352;2023-12-20T05:53:51;6.00;99.90
28761;DHT22;15917;50.014;8.352;2023-12-20T05:56:16;6.00;99.90
28761;DHT22;15917;50.014;8.352;2023-12-20T05:58:42;6.00;99.90
28761;DHT22;15917;50.014;8.352;2023-12-20T06:01:09;5.90;99.90
28761;DHT22;15917;50.014;8.352;2023-12-20T06:03:34;5.90;99.90
28761;DHT22;15917;50.014;8.352;2023-12-20T06:06:07;5.80;99.90
28761;DHT22;15917;50.014;8.352;2023-12-20T06:08:33;5.80;99.90
28761;DHT22;15917;50.014;8.352;2023-12-20T06:10:59;6.60;99.90
28761;DHT22;15917;50.014;8.352;2023-12-20T06:13:25;7.00;99.90
28761;DHT22;15917;50.014;8.352;2023-12-20T06:15:54;6.90;99.90
28761;DHT22;15917;50.014;8.352;2023-12-20T06:18:19;6.60;99.90
28761;DHT22;15917;50.014;8.352;2023-12-20T06:20:45;6.30;99.90
28761;DHT22;15917;50.014;8.352;2023-12-20T06:23:10;6.10;99.90
28761;DHT22;15917;50.014;8.352;2023-12-20T06:25:36;6.00;99.90
28761;DHT22;15917;50.014;8.352;2023-12-20T06:28:02;5.80;99.90
28761;DHT22;15917;50.014;8.352;2023-12-20T06:30:27;5.70;99.90
28761;DHT22;15917;50.014;8.352;2023-12-20T06:32:54;5.60;99.90
28761;DHT22;15917;50.014;8.352;2023-12-20T06:35:20;5.60;99.90
28761;DHT22;15917;50.014;8.352;2023-12-20T06:37:45;5.50;99.90
28761;DHT22;15917;50.014;8.352;2023-12-20T06:40:11;5.50;99.90
28761;DHT22;15917;50.014;8.352;2023-12-20T06:42:37;5.40;99.90
28761;DHT22;15917;50.014;8.352;2023-12-20T06:45:03;5.40;99.90
28761;DHT22;15917;50.014;8.352;2023-12-20T06:47:29;5.40;99.90
28761;DHT22;15917;50.014;8.352;2023-12-20T06:49:54;5.30;99.90
28761;DHT22;15917;50.014;8.352;2023-12-20T06:52:20;5.30;99.90
28761;DHT22;15917;50.014;8.352;2023-12-20T06:54:45;5.30;99.90
28761;DHT22;15917;50.014;8.352;2023-12-20T06:57:11;5.30;99.90
28761;DHT22;15917;50.014;8.352;2023-12-20T06:59:40;5.30;99.90
28761;DHT22;15917;50.014;8.352;2023-12-20T07:02:06;5.30;99.90
28761;DHT22;15917;50.014;8.352;2023-12-20T07:04:32;5.30;99.90
28761;DHT22;15917;50.014;8.352;2023-12-20T07:06:57;5.30;99.90
28761;DHT22;15917;50.014;8.352;2023-12-20T07:09:25;5.20;99.90
28761;DHT22;15917;50.014;8.352;2023-12-20T07:11:51;5.20;99.90
28761;DHT22;15917;50.014;8.352;2023-12-20T07:14:17;5.20;99.90
28761;DHT22;15917;50.014;8.352;2023-12-20T07:16:43;5.20;99.90
28761;DHT22;15917;50.014;8.352;2023-12-20T07:19:08;5.10;99.90
28761;DHT22;15917;50.014;8.352;2023-12-20T07:21:34;5.20;99.90
28761;DHT22;15917;50.014;8.352;2023-12-20T07:23:59;5.20;99.90
28761;DHT22;15917;50.014;8.352;2023-12-20T07:26:25;5.20;99.90
28761;DHT22;15917;50.014;8.352;2023-12-20T07:28:50;5.20;99.90
28761;DHT22;15917;50.014;8.352;2023-12-20T07:31:16;5.30;99.90
28761;DHT22;15917;50.014;8.352;2023-12-20T07:33:42;5.20;99.90
28761;DHT22;15917;50.014;8.352;2023-12-20T07:36:08;5.30;99.90
28761;DHT22;15917;50.014;8.352;2023-12-20T07:38:34;5.30;99.90
28761;DHT22;15917;50.014;8.352;2023-12-20T07:40:59;5.30;99.90
28761;DHT22;15917;50.014;8.352;2023-12-20T07:43:25;5.30;99.90
28761;DHT22;15917;50.014;8.352;2023-12-20T07:45:50;5.30;99.90
28761;DHT22;15917;50.014;8.352;2023-12-20T07:48:17;5.30;99.90
28761;DHT22;15917;50.014;8.352;2023-12-20T07:50:43;5.30;99.90
28761;DHT22;15917;50.014;8.352;2023-12-20T07:53:08;5.30;99.90
28761;DHT22;15917;50.014;8.352;2023-12-20T07:55:34;5.30;99.90
28761;DHT22;15917;50.014;8.352;2023-12-20T07:58:00;5.40;99.90
28761;DHT22;15917;50.014;8.352;2023-12-20T08:00:26;5.40;99.90
28761;DHT22;15917;50.014;8.352;2023-12-20T08:02:51;5.50;99.90
28761;DHT22;15917;50.014;8.352;2023-12-20T08:05:17;5.60;99.90
28761;DHT22;15917;50.014;8.352;2023-12-20T08:07:43;5.60;99.90
28761;DHT22;15917;50.014;8.352;2023-12-20T08:10:08;5.70;99.90
28761;DHT22;15917;50.014;8.352;2023-12-20T08:12:34;5.80;99.90
28761;DHT22;15917;50.014;8.352;2023-12-20T08:15:01;5.80;99.90
28761;DHT22;15917;50.014;8.352;2023-12-20T08:17:26;5.80;99.90
28761;DHT22;15917;50.014;8.352;2023-12-20T08:19:52;5.80;99.90
28761;DHT22;15917;50.014;8.352;2023-12-20T08:22:18;5.80;99.90
28761;DHT22;15917;50.014;8.352;2023-12-20T08:24:43;5.80;99.90
28761;DHT22;15917;50.014;8.352;2023-12-20T08:27:09;5.80;99.90
28761;DHT22;15917;50.014;8.352;2023-12-20T08:29:35;5.80;99.90
28761;DHT22;15917;50.014;8.352;2023-12-20T08:32:01;5.90;99.90
28761;DHT22;15917;50.014;8.352;2023-12-20T08:34:27;5.90;99.90
28761;DHT22;15917;50.014;8.352;2023-12-20T08:36:55;6.00;99.90
28761;DHT22;15917;50.014;8.352;2023-12-20T08:39:21;6.00;99.90
28761;DHT22;15917;50.014;8.352;2023-12-20T08:41:46;6.00;99.90
28761;DHT22;15917;50.014;8.352;2023-12-20T08:44:12;6.00;99.90
28761;DHT22;15917;50.014;8.352;2023-12-20T08:46:38;6.00;99.90
28761;DHT22;15917;50.014;8.352;2023-12-20T08:49:04;6.00;99.90
28761;DHT22;15917;50.014;8.352;2023-12-20T08:51:30;6.00;99.90
28761;DHT22;15917;50.014;8.352;2023-12-20T08:53:56;6.10;99.90
28761;DHT22;15917;50.014;8.352;2023-12-20T08:56:21;6.00;99.90
28761;DHT22;15917;50.014;8.352;2023-12-20T08:58:47;6.10;99.90
28761;DHT22;15917;50.014;8.352;2023-12-20T09:01:13;6.10;99.90
28761;DHT22;15917;50.014;8.352;2023-12-20T09:03:39;6.10;99.90
28761;DHT22;15917;50.014;8.352;2023-12-20T09:06:05;6.10;99.90
28761;DHT22;15917;50.014;8.352;2023-12-20T09:08:31;6.20;99.90
28761;DHT22;15917;50.014;8.352;2023-12-20T09:10:56;6.20;99.90
28761;DHT22;15917;50.014;8.352;2023-12-20T09:13:22;6.20;99.90
28761;DHT22;15917;50.014;8.352;2023-12-20T09:15:56;6.20;99.90
28761;DHT22;15917;50.014;8.352;2023-12-20T09:18:22;6.20;99.90
28761;DHT22;15917;50.014;8.352;2023-12-20T09:20:47;6.30;99.90
28761;DHT22;15917;50.014;8.352;2023-12-20T09:23:13;6.30;99.90
28761;DHT22;15917;50.014;8.352;2023-12-20T09:25:38;6.30;99.90
28761;DHT22;15917;50.014;8.352;2023-12-20T09:28:05;6.30;99.90
28761;DHT22;15917;50.014;8.352;2023-12-20T09:30:31;6.30;99.90
28761;DHT22;15917;50.014;8.352;2023-12-20T09:32:57;6.40;99.90
28761;DHT22;15917;50.014;8.352;2023-12-20T09:35:23;6.40;99.90
28761;DHT22;15917;50.014;8.352;2023-12-20T09:37:49;6.40;99.90
28761;DHT22;15917;50.014;8.352;2023-12-20T09:40:20;6.50;99.90
28761;DHT22;15917;50.014;8.352;2023-12-20T09:45:21;6.60;99.90
28761;DHT22;15917;50.014;8.352;2023-12-20T09:47:52;6.60;99.90
28761;DHT22;15917;50.014;8.352;2023-12-20T09:50:19;6.60;99.90
28761;DHT22;15917;50.014;8.352;2023-12-20T09:52:50;6.60;99.90
28761;DHT22;15917;50.014;8.352;2023-12-20T09:55:18;6.60;99.90
28761;DHT22;15917;50.014;8.352;2023-12-20T09:57:44;6.70;99.90
28761;DHT22;15917;50.014;8.352;2023-12-20T10:00:11;6.70;99.90
28761;DHT22;15917;50.014;8.352;2023-12-20T10:02:56;6.80;99.90
28761;DHT22;15917;50.014;8.352;2023-12-20T10:05:30;6.80;99.90
28761;DHT22;15917;50.014;8.352;2023-12-20T10:07:55;6.90;99.90
28761;DHT22;15917;50.014;8.352;2023-12-20T10:10:22;7.10;99.90
28761;DHT22;15917;50.014;8.352;2023-12-20T10:13:03;7.20;99.90
28761;DHT22;15917;50.014;8.352;2023-12-20T10:15:29;7.30;99.90
28761;DHT22;15917;50.014;8.352;2023-12-20T10:17:56;7.30;99.90
28761;DHT22;15917;50.014;8.352;2023-12-20T10:20:22;7.30;99.90
28761;DHT22;15917;50.014;8.352;2023-12-20T10:22:49;7.30;99.90
28761;DHT22;15917;50.014;8.352;2023-12-20T10:25:15;7.30;99.90
28761;DHT22;15917;50.014;8.352;2023-12-20T10:27:40;7.40;99.90
28761;DHT22;15917;50.014;8.352;2023-12-20T10:30:06;7.50;99.90
28761;DHT22;15917;50.014;8.352;2023-12-20T10:32:32;7.60;99.90
28761;DHT22;15917;50.014;8.352;2023-12-20T10:34:58;7.90;99.90
28761;DHT22;15917;50.014;8.352;2023-12-20T10:37:25;8.30;99.90
28761;DHT22;15917;50.014;8.352;2023-12-20T10:39:54;8.90;99.90
28761;DHT22;15917;50.014;8.352;2023-12-20T10:42:26;9.70;99.90
28761;DHT22;15917;50.014;8.352;2023-12-20T10:44:52;10.20;99.90
28761;DHT22;15917;50.014;8.352;2023-12-20T10:47:20;10.60;99.90
28761;DHT22;15917;50.014;8.352;2023-12-20T10:49:46;10.80;99.90
28761;DHT22;15917;50.014;8.352;2023-12-20T10:52:12;10.80;99.90
28761;DHT22;15917;50.014;8.352;2023-12-20T10:54:40;11.20;99.90
28761;DHT22;15917;50.014;8.352;2023-12-20T10:57:06;11.70;99.90
28761;DHT22;15917;50.014;8.352;2023-12-20T10:59:33;11.80;99.90
28761;DHT22;15917;50.014;8.352;2023-12-20T11:02:03;11.80;99.90
28761;DHT22;15917;50.014;8.352;2023-12-20T11:04:44;11.80;99.90
28761;DHT22;15917;50.014;8.352;2023-12-20T11:09:59;12.00;99.90
28761;DHT22;15917;50.014;8.352;2023-12-20T11:12:28;11.90;99.90
28761;DHT22;15917;50.014;8.352;2023-12-20T11:14:58;11.90;99.90
28761;DHT22;15917;50.014;8.352;2023-12-20T11:17:28;12.00;99.90
28761;DHT22;15917;50.014;8.352;2023-12-20T11:20:04;12.10;99.90
28761;DHT22;15917;50.014;8.352;2023-12-20T11:22:31;12.10;99.90
28761;DHT22;15917;50.014;8.352;2023-12-20T11:25:05;12.30;99.90
28761;DHT22;15917;50.014;8.352;2023-12-20T11:27:32;12.30;99.90
28761;DHT22;15917;50.014;8.352;2023-12-20T11:29:58;12.40;99.90
28761;DHT22;15917;50.014;8.352;2023-12-20T11:34:59;12.70;99.90
28761;DHT22;15917;50.014;8.352;2023-12-20T11:37:35;12.90;99.90
28761;DHT22;15917;50.014;8.352;2023-12-20T11:40:22;12.60;99.90
28761;DHT22;15917;50.014;8.352;2023-12-20T11:42:51;12.00;99.90
28761;DHT22;15917;50.014;8.352;2023-12-20T11:45:18;11.50;99.90
28761;DHT22;15917;50.014;8.352;2023-12-20T11:47:47;11.10;99.90
28761;DHT22;15917;50.014;8.352;2023-12-20T11:50:18;10.50;99.90
28761;DHT22;15917;50.014;8.352;2023-12-20T11:52:44;9.90;99.90
28761;DHT22;15917;50.014;8.352;2023-12-20T11:55:09;9.60;99.90
28761;DHT22;15917;50.014;8.352;2023-12-20T11:57:36;9.30;99.90
28761;DHT22;15917;50.014;8.352;2023-12-20T12:00:02;9.10;99.90
28761;DHT22;15917;50.014;8.352;2023-12-20T12:02:37;8.90;99.90
28761;DHT22;15917;50.014;8.352;2023-12-20T12:05:03;8.80;99.90
28761;DHT22;15917;50.014;8.352;2023-12-20T12:07:32;8.60;99.90
28761;DHT22;15917;50.014;8.352;2023-12-20T12:09:57;8.50;99.90
28761;DHT22;15917;50.014;8.352;2023-12-20T12:12:24;8.70;99.90
28761;DHT22;15917;50.014;8.352;2023-12-20T12:14:50;10.00;99.90
28761;DHT22;15917;50.014;8.352;2023-12-20T12:17:16;11.00;99.90
28761;DHT22;15917;50.014;8.352;2023-12-20T12:19:43;11.80;99.90
28761;DHT22;15917;50.014;8.352;2023-12-20T12:22:10;12.50;99.90
28761;DHT22;15917;50.014;8.352;2023-12-20T12:24:42;12.90;99.90
28761;DHT22;15917;50.014;8.352;2023-12-20T12:27:08;13.40;99.90
28761;DHT22;15917;50.014;8.352;2023-12-20T12:29:34;13.80;99.90
28761;DHT22;15917;50.014;8.352;2023-12-20T12:32:01;13.80;99.90
28761;DHT22;15917;50.014;8.352;2023-12-20T12:34:30;13.90;99.90
28761;DHT22;15917;50.014;8.352;2023-12-20T12:36:56;14.20;99.90
28761;DHT22;15917;50.014;8.352;2023-12-20T12:39:23;14.10;99.90
28761;DHT22;15917;50.014;8.352;2023-12-20T12:41:50;13.70;99.90
28761;DHT22;15917;50.014;8.352;2023-12-20T12:44:16;13.10;99.90
28761;DHT22;15917;50.014;8.352;2023-12-20T12:46:44;12.40;99.90
28761;DHT22;15917;50.014;8.352;2023-12-20T12:49:09;12.00;99.90
28761;DHT22;15917;50.014;8.352;2023-12-20T12:51:35;11.80;99.90
28761;DHT22;15917;50.014;8.352;2023-12-20T12:54:00;12.20;99.90
28761;DHT22;15917;50.014;8.352;2023-12-20T12:56:26;12.80;99.90
28761;DHT22;15917;50.014;8.352;2023-12-20T12:58:52;12.90;99.90
28761;DHT22;15917;50.014;8.352;2023-12-20T13:01:17;13.00;99.90
28761;DHT22;15917;50.014;8.352;2023-12-20T13:03:43;13.30;99.90
28761;DHT22;15917;50.014;8.352;2023-12-20T13:06:08;13.10;99.90
28761;DHT22;15917;50.014;8.352;2023-12-20T13:08:34;13.00;99.90
28761;DHT22;15917;50.014;8.352;2023-12-20T13:11:01;13.00;99.90
28761;DHT22;15917;50.014;8.352;2023-12-20T13:13:30;12.70;99.90
28761;DHT22;15917;50.014;8.352;2023-12-20T13:15:55;12.40;99.90
28761;DHT22;15917;50.014;8.352;2023-12-20T13:18:24;11.80;99.90
28761;DHT22;15917;50.014;8.352;2023-12-20T13:20:50;11.60;99.90
28761;DHT22;15917;50.014;8.352;2023-12-20T13:23:16;11.60;99.90
28761;DHT22;15917;50.014;8.352;2023-12-20T13:25:43;11.40;99.90
28761;DHT22;15917;50.014;8.352;2023-12-20T13:28:11;11.40;99.90
28761;DHT22;15917;50.014;8.352;2023-12-20T13:30:36;11.50;99.90
28761;DHT22;15917;50.014;8.352;2023-12-20T13:33:02;11.50;99.90
28761;DHT22;15917;50.014;8.352;2023-12-20T13:35:28;11.30;99.90
28761;DHT22;15917;50.014;8.352;2023-12-20T13:37:53;11.00;99.90
28761;DHT22;15917;50.014;8.352;2023-12-20T13:40:19;10.80;99.90
28761;DHT22;15917;50.014;8.352;2023-12-20T13:42:45;10.40;99.90
28761;DHT22;15917;50.014;8.352;2023-12-20T13:45:11;10.20;99.90
28761;DHT22;15917;50.014;8.352;2023-12-20T13:47:36;10.20;99.90
28761;DHT22;15917;50.014;8.352;2023-12-20T13:50:03;10.00;99.90
28761;DHT22;15917;50.014;8.352;2023-12-20T13:52:29;9.80;99.90
28761;DHT22;15917;50.014;8.352;2023-12-20T13:54:55;9.80;99.90
28761;DHT22;15917;50.014;8.352;2023-12-20T13:57:20;9.60;99.90
28761;DHT22;15917;50.014;8.352;2023-12-20T13:59:46;9.30;99.90
28761;DHT22;15917;50.014;8.352;2023-12-20T14:02:12;9.10;99.90
28761;DHT22;15917;50.014;8.352;2023-12-20T14:04:37;9.10;99.90
28761;DHT22;15917;50.014;8.352;2023-12-20T14:07:05;9.00;99.90
28761;DHT22;15917;50.014;8.352;2023-12-20T14:09:30;8.90;99.90
28761;DHT22;15917;50.014;8.352;2023-12-20T14:11:56;8.90;99.90
28761;DHT22;15917;50.014;8.352;2023-12-20T14:14:22;8.80;99.90
28761;DHT22;15917;50.014;8.352;2023-12-20T14:16:47;8.70;99.90
28761;DHT22;15917;50.014;8.352;2023-12-20T14:19:14;8.70;99.90
28761;DHT22;15917;50.014;8.352;2023-12-20T14:21:39;8.60;99.90
28761;DHT22;15917;50.014;8.352;2023-12-20T14:24:05;8.60;99.90
28761;DHT22;15917;50.014;8.352;2023-12-20T14:26:31;8.50;99.90
28761;DHT22;15917;50.014;8.352;2023-12-20T14:28:57;8.50;99.90
28761;DHT22;15917;50.014;8.352;2023-12-20T14:31:23;8.50;99.90
28761;DHT22;15917;50.014;8.352;2023-12-20T14:33:50;8.50;99.90
28761;DHT22;15917;50.014;8.352;2023-12-20T14:36:18;8.50;99.90
28761;DHT22;15917;50.014;8.352;2023-12-20T14:38:45;8.50;99.90
28761;DHT22;15917;50.014;8.352;2023-12-20T14:41:12;8.50;99.90
28761;DHT22;15917;50.014;8.352;2023-12-20T14:43:37;8.50;99.90
28761;DHT22;15917;50.014;8.352;2023-12-20T14:46:03;8.50;99.90
28761;DHT22;15917;50.014;8.352;2023-12-20T14:48:31;8.40;99.90
28761;DHT22;15917;50.014;8.352;2023-12-20T14:50:57;8.30;99.90
28761;DHT22;15917;50.014;8.352;2023-12-20T14:53:24;8.20;99.90
28761;DHT22;15917;50.014;8.352;2023-12-20T14:55:51;8.10;99.90
28761;DHT22;15917;50.014;8.352;2023-12-20T14:58:17;8.10;99.90
28761;DHT22;15917;50.014;8.352;2023-12-20T15:00:42;8.10;99.90
28761;DHT22;15917;50.014;8.352;2023-12-20T15:03:09;8.10;99.90
28761;DHT22;15917;50.014;8.352;2023-12-20T15:05:34;8.10;99.90
28761;DHT22;15917;50.014;8.352;2023-12-20T15:08:01;8.00;99.90
28761;DHT22;15917;50.014;8.352;2023-12-20T15:10:27;7.90;99.90
28761;DHT22;15917;50.014;8.352;2023-12-20T15:12:52;7.90;99.90
28761;DHT22;15917;50.014;8.352;2023-12-20T15:15:19;7.90;99.90
28761;DHT22;15917;50.014;8.352;2023-12-20T15:17:45;7.90;99.90
28761;DHT22;15917;50.014;8.352;2023-12-20T15:20:11;7.80;99.90
28761;DHT22;15917;50.014;8.352;2023-12-20T15:22:37;7.80;99.90
28761;DHT22;15917;50.014;8.352;2023-12-20T15:25:03;7.80;99.90
28761;DHT22;15917;50.014;8.352;2023-12-20T15:27:31;7.80;99.90
28761;DHT22;15917;50.014;8.352;2023-12-20T15:29:58;7.80;99.90
28761;DHT22;15917;50.014;8.352;2023-12-20T15:32:24;7.70;99.90
28761;DHT22;15917;50.014;8.352;2023-12-20T15:34:50;7.70;99.90
28761;DHT22;15917;50.014;8.352;2023-12-20T15:37:17;7.70;99.90
28761;DHT22;15917;50.014;8.352;2023-12-20T15:39:43;7.70;99.90
28761;DHT22;15917;50.014;8.352;2023-12-20T15:42:08;7.60;99.90
28761;DHT22;15917;50.014;8.352;2023-12-20T15:44:34;7.60;99.90